MZU weather

Muzaffarpur Airport
Bihar, India

Public forecast

Using degrees Celsius for public forecast. Weather courtesy of forecast.io.

METAR (pilot weather report)

Closest report is Lok Nayak Jayaprakash Airport, 34.0 nm (62.9 km) SSW. Retrieved 2019/03/23 18:00 UTC (15 minutes ago):

VEPT 231800Z 26004KT 4000 HZ NSC 22/09 Q1010 NOSIG

TAF (pilot weather forecast)

Closest forecast is Lok Nayak Jayaprakash Airport, 34.0 nm (62.9 km) SSW. Retrieved 2019/03/23 12:36 UTC (6 hours ago):

TAF VEPT 231100Z 2312/2418 26006KT 4000 HZ NSC BECMG 2319/2321 3000 HZ BECMG 2404/2406 4000 HZ BECMG 2408/2410 27010KT 6000 BECMG 2415/2417 4000 HZ